Nantucket Memorial Airport
KACK : now visible

Airfield :











YOU CAN JOIN US ON...

 
LOGIN :

Register | Disclaimer

   EN    FR    IT 

 









Legend :    VFR   Marginal VFR   IFR   Intensive IFR   Very Intensive IFR
Visi :
Ceiling :
>= 8 km
>= 3000ft
5 to 8 km
1000 to 3000 ft
1500m to 5 km
500 to 1000 ft
800 to 1500m
200 to 500 ft
< 800m
< 200 ft
Symbols :   Thunderstorms  Fog  Heavy snow  Heavy precipitations  Wind > 20 kt






- Airport Elevation : 47 ft
- IATA code : ACK


KACK - Nantucket Memorial

CURRENT METAR :
  • 170353Z 26006KT 10SM CLR 02/01 A3009 RMK AO2 SLP190 T00220011 $

EXPIRED METARs :
  • 170253Z 26005KT 10SM FEW041 03/02 A3008 RMK AO2 SLP187 T00330017 58001 $
  • 170153Z 26005KT 10SM FEW044 03/02 A3009 RMK AO2 SLP189 T00330017 $

TAF KACK
Valid from the 17 at 00:00 until the 18 at 00:00 UTC


162329Z 1700/1724 25008KT P6SM BKN100
FM170400 26007KT P6SM SCT100
FM170700 30007KT P6SM FEW100
FM171400 33010KT P6SM SKC



MET'MAP, your aeronautical weather chart ! - Copyright ORBIFLY December 2007 - Disclaimer

ORBIFLY MET'MAP TEAM :

Programming & Development : Alexandra Zaïnal
Concept & original design : Baudouin d'Aumeries
Assistance for programming : Marc-Olivier Méhu
Technical & hardware support : Manuel Goepfert

Contact : metmap@orbifly.com




SOURCES & CREDITS :

   NOAA       Earth
Advisory